Time;durP1;ratioP1;P1;durP2;ratioP2;P2;SDS_P1;SDS_P2;PMS_P1;PMS_P2;Temp;Humidity;BMP_temperature;BMP_pressure;BME280_temperature;BME280_humidity;BME280_pressure;Samples;Min_cycle;Max_cycle;Signal;HPM_P1;HPM_P2
2022/09/07 00:01:59;;;;;;;0.57;0.57;;;;;;;;;;5052964;28;20064;-73
2022/09/07 00:04:25;;;;;;;0.32;0.32;;;;;;;;;;5035662;28;20143;-74
2022/09/07 00:06:50;;;;;;;0.20;0.20;;;;;;;;;;5053293;28;20049;-73
2022/09/07 00:09:15;;;;;;;0.30;0.30;;;;;;;;;;5053358;28;20025;-73
2022/09/07 00:11:41;;;;;;;0.20;0.20;;;;;;;;;;5053165;28;20499;-73
2022/09/07 00:14:07;;;;;;;0.20;0.20;;;;;;;;;;5035306;28;20475;-73
2022/09/07 00:16:32;;;;;;;1.42;1.35;;;;;;;;;;5053162;28;20094;-73
2022/09/07 00:18:59;;;;;;;0.20;0.20;;;;;;;;;;5053396;28;20048;-73
2022/09/07 00:21:25;;;;;;;1.42;1.40;;;;;;;;;;5053156;28;20113;-73
2022/09/07 00:23:50;;;;;;;0.20;0.20;;;;;;;;;;5034959;28;20116;-73
2022/09/07 00:26:19;;;;;;;0.20;0.20;;;;;;;;;;5053120;28;20021;-72
2022/09/07 00:28:45;;;;;;;0.30;0.30;;;;;;;;;;5035286;28;20044;-73
2022/09/07 00:31:11;;;;;;;0.28;0.28;;;;;;;;;;5053313;28;20036;-72
2022/09/07 00:33:37;;;;;;;0.20;0.20;;;;;;;;;;5051830;28;20029;-72
2022/09/07 00:36:03;;;;;;;0.20;0.20;;;;;;;;;;5052954;28;20029;-74
2022/09/07 00:38:28;;;;;;;0.20;0.20;;;;;;;;;;5051681;28;20033;-73
2022/09/07 00:41:16;;;;;;;0.28;0.28;;;;;;;;;;5053072;28;20102;-74
2022/09/07 00:43:47;;;;;;;0.40;0.40;;;;;;;;;;5052854;28;20032;-72
2022/09/07 00:46:22;;;;;;;0.50;0.50;;;;;;;;;;5051725;28;20060;-75
2022/09/07 00:49:20;;;;;;;0.20;0.20;;;;;;;;;;5053338;28;20116;-73
2022/09/07 00:51:50;;;;;;;0.20;0.20;;;;;;;;;;5008601;28;20392;-73
2022/09/07 00:54:21;;;;;;;0.30;0.30;;;;;;;;;;5053065;28;20040;-73
2022/09/07 00:56:48;;;;;;;0.20;0.20;;;;;;;;;;5055287;28;20044;-73
2022/09/07 00:59:17;;;;;;;0.20;0.20;;;;;;;;;;5039031;28;20129;-73
2022/09/07 01:01:44;;;;;;;0.20;0.20;;;;;;;;;;5038287;28;20025;-73
2022/09/07 01:04:09;;;;;;;2.30;1.10;;;;;;;;;;5056583;28;20025;-73
2022/09/07 01:06:36;;;;;;;0.28;0.28;;;;;;;;;;5056850;28;20052;-73
2022/09/07 01:09:04;;;;;;;0.20;0.20;;;;;;;;;;5056524;28;20048;-73
2022/09/07 01:11:30;;;;;;;0.30;0.30;;;;;;;;;;5056606;28;20037;-74
2022/09/07 01:13:57;;;;;;;0.22;0.22;;;;;;;;;;5056005;28;20950;-73
2022/09/07 01:16:34;;;;;;;0.20;0.20;;;;;;;;;;5038337;28;20029;-75
2022/09/07 01:19:16;;;;;;;2.60;2.45;;;;;;;;;;5039029;28;20025;-73
2022/09/07 01:21:57;;;;;;;0.30;0.30;;;;;;;;;;5038724;28;20044;-73
2022/09/07 01:24:31;;;;;;;0.20;0.20;;;;;;;;;;5055668;28;20025;-73
2022/09/07 01:27:17;;;;;;;0.13;0.13;;;;;;;;;;5056075;28;20025;-74
2022/09/07 01:29:43;;;;;;;0.20;0.20;;;;;;;;;;5056280;28;20028;-73
2022/09/07 01:32:11;;;;;;;0.20;0.20;;;;;;;;;;5021915;28;20037;-73
2022/09/07 01:34:37;;;;;;;0.20;0.20;;;;;;;;;;5038124;28;20018;-73
2022/09/07 01:37:03;;;;;;;0.20;0.20;;;;;;;;;;5038741;28;20037;-73
2022/09/07 01:39:34;;;;;;;0.13;0.13;;;;;;;;;;5056033;28;20047;-74
2022/09/07 01:42:06;;;;;;;0.20;0.20;;;;;;;;;;5037773;28;20029;-74
2022/09/07 01:44:32;;;;;;;0.20;0.20;;;;;;;;;;5038272;28;20102;-73
2022/09/07 01:47:00;;;;;;;0.20;0.20;;;;;;;;;;5056237;28;20065;-74
2022/09/07 01:49:46;;;;;;;0.20;0.20;;;;;;;;;;5055336;28;20587;-74
2022/09/07 01:52:18;;;;;;;0.20;0.20;;;;;;;;;;5054839;28;20044;-73
2022/09/07 01:54:46;;;;;;;0.20;0.20;;;;;;;;;;5056023;28;20029;-75
2022/09/07 01:57:21;;;;;;;0.20;0.20;;;;;;;;;;5037830;28;20078;-73
2022/09/07 01:59:54;;;;;;;0.20;0.20;;;;;;;;;;5056061;28;20112;-73
2022/09/07 02:02:36;;;;;;;0.25;0.25;;;;;;;;;;5038245;28;20032;-73
2022/09/07 02:05:15;;;;;;;0.20;0.20;;;;;;;;;;5056077;28;20123;-75
2022/09/07 02:07:40;;;;;;;0.20;0.20;;;;;;;;;;5054552;28;20091;-75
2022/09/07 02:10:25;;;;;;;0.20;0.20;;;;;;;;;;5037840;28;20057;-75
2022/09/07 02:12:52;;;;;;;0.17;0.17;;;;;;;;;;5056144;28;20078;-74
2022/09/07 02:15:22;;;;;;;0.20;0.20;;;;;;;;;;5055256;28;20040;-75
2022/09/07 02:17:50;;;;;;;0.13;0.13;;;;;;;;;;5055080;28;20060;-74
2022/09/07 02:20:27;;;;;;;0.20;0.20;;;;;;;;;;5037591;28;20431;-74
2022/09/07 02:22:54;;;;;;;0.20;0.20;;;;;;;;;;5037528;28;20040;-76
2022/09/07 02:25:21;;;;;;;0.82;0.82;;;;;;;;;;5037647;28;20025;-74
2022/09/07 02:27:50;;;;;;;0.20;0.20;;;;;;;;;;5037151;28;20037;-74
2022/09/07 02:30:16;;;;;;;0.20;0.20;;;;;;;;;;5037719;28;20021;-73
2022/09/07 02:32:41;;;;;;;0.20;0.20;;;;;;;;;;5054926;28;20029;-73
2022/09/07 02:35:08;;;;;;;0.20;0.20;;;;;;;;;;5055041;28;20036;-75
2022/09/07 02:37:35;;;;;;;0.20;0.20;;;;;;;;;;5037183;28;20029;-74
2022/09/07 02:40:00;;;;;;;0.30;0.30;;;;;;;;;;5037130;28;20032;-74
2022/09/07 02:42:31;;;;;;;0.20;0.20;;;;;;;;;;5054735;28;20111;-74
2022/09/07 02:44:57;;;;;;;0.20;0.20;;;;;;;;;;5054988;28;20496;-73
2022/09/07 02:47:30;;;;;;;0.30;0.30;;;;;;;;;;5036976;28;20052;-74
2022/09/07 02:49:59;;;;;;;0.20;0.20;;;;;;;;;;5055010;28;20028;-74
2022/09/07 02:52:25;;;;;;;;;;;;;;;;;;5055283;28;20032;-73
2022/09/07 02:55:14;;;;;;;0.20;0.20;;;;;;;;;;5036782;28;20050;-73
2022/09/07 02:57:56;;;;;;;0.20;0.20;;;;;;;;;;5022203;28;20445;-73
2022/09/07 03:00:24;;;;;;;0.20;0.20;;;;;;;;;;5036623;28;20031;-74
2022/09/07 03:03:02;;;;;;;0.20;0.20;;;;;;;;;;5043725;28;20083;-73
2022/09/07 03:05:40;;;;;;;0.20;0.20;;;;;;;;;;5031337;28;20369;-72
2022/09/07 03:08:14;;;;;;;0.20;0.20;;;;;;;;;;5032356;28;20059;-72
2022/09/07 03:10:40;;;;;;;0.28;0.28;;;;;;;;;;5039193;28;20719;-73
2022/09/07 03:13:05;;;;;;;0.20;0.20;;;;;;;;;;5049992;28;20033;-76
2022/09/07 03:15:31;;;;;;;0.20;0.20;;;;;;;;;;5031485;28;20732;-77
2022/09/07 03:17:56;;;;;;;0.30;0.30;;;;;;;;;;5050411;28;20037;-73
2022/09/07 03:20:22;;;;;;;0.20;0.20;;;;;;;;;;5032659;28;20525;-75
2022/09/07 03:22:49;;;;;;;0.30;0.30;;;;;;;;;;5050566;28;20033;-76
2022/09/07 03:25:16;;;;;;;0.20;0.20;;;;;;;;;;5050268;28;20028;-75
2022/09/07 03:27:42;;;;;;;0.20;0.20;;;;;;;;;;5049802;28;20494;-77
2022/09/07 03:30:09;;;;;;;0.20;0.20;;;;;;;;;;5050558;28;20120;-73
2022/09/07 03:32:35;;;;;;;0.20;0.20;;;;;;;;;;5049074;28;20047;-75
2022/09/07 03:35:02;;;;;;;0.30;0.30;;;;;;;;;;5030590;28;20083;-73
2022/09/07 03:37:27;;;;;;;0.20;0.20;;;;;;;;;;5047765;28;20380;-74
2022/09/07 03:39:53;;;;;;;0.20;0.20;;;;;;;;;;5047960;28;20025;-75
2022/09/07 03:42:19;;;;;;;0.20;0.20;;;;;;;;;;5048516;28;20068;-74
2022/09/07 03:44:44;;;;;;;0.20;0.20;;;;;;;;;;5047327;28;20692;-74
2022/09/07 03:47:10;;;;;;;0.20;0.20;;;;;;;;;;5047537;28;20388;-73
2022/09/07 03:49:36;;;;;;;0.20;0.20;;;;;;;;;;5032011;28;20033;-73
2022/09/07 03:52:01;;;;;;;0.20;0.20;;;;;;;;;;5029755;28;20037;-74
2022/09/07 03:54:27;;;;;;;0.22;0.22;;;;;;;;;;5022873;28;20021;-73
2022/09/07 03:56:52;;;;;;;0.20;0.20;;;;;;;;;;5020493;28;20026;-75
2022/09/07 03:59:18;;;;;;;0.20;0.20;;;;;;;;;;5039527;28;20040;-72
2022/09/07 04:01:43;;;;;;;0.20;0.20;;;;;;;;;;5022384;28;20104;-73
2022/09/07 04:04:09;;;;;;;0.20;0.20;;;;;;;;;;5005973;28;20508;-80
2022/09/07 04:06:35;;;;;;;1.38;1.08;;;;;;;;;;4997269;28;20089;-74
2022/09/07 04:09:02;;;;;;;0.20;0.20;;;;;;;;;;5008981;28;20038;-74
2022/09/07 04:11:28;;;;;;;0.20;0.20;;;;;;;;;;5008404;28;20137;-73
2022/09/07 04:13:54;;;;;;;0.30;0.30;;;;;;;;;;5009815;28;20480;-74
2022/09/07 04:16:21;;;;;;;0.20;0.20;;;;;;;;;;5026885;28;20022;-77
2022/09/07 04:18:49;;;;;;;0.20;0.20;;;;;;;;;;5011638;28;20132;-75
2022/09/07 04:21:15;;;;;;;0.20;0.20;;;;;;;;;;5027333;28;20021;-75
2022/09/07 04:23:41;;;;;;;0.47;0.47;;;;;;;;;;5029366;28;20032;-74
2022/09/07 04:26:12;;;;;;;0.20;0.20;;;;;;;;;;5028323;28;20065;-75
2022/09/07 04:28:37;;;;;;;0.20;0.20;;;;;;;;;;5029236;28;20036;-74
2022/09/07 04:31:03;;;;;;;0.10;0.10;;;;;;;;;;5028699;28;20442;-77
2022/09/07 04:33:32;;;;;;;0.40;0.40;;;;;;;;;;5027287;28;20043;-74
2022/09/07 04:35:58;;;;;;;0.20;0.20;;;;;;;;;;5027694;28;20029;-76
2022/09/07 04:38:24;;;;;;;0.20;0.20;;;;;;;;;;5028082;28;20030;-73
2022/09/07 04:40:56;;;;;;;0.20;0.20;;;;;;;;;;5029278;28;20035;-73
2022/09/07 04:43:22;;;;;;;0.30;0.30;;;;;;;;;;5044672;28;20032;-73
2022/09/07 04:45:47;;;;;;;0.30;0.30;;;;;;;;;;5027856;28;20029;-74
2022/09/07 04:48:13;;;;;;;0.20;0.20;;;;;;;;;;5028225;28;20064;-75
2022/09/07 04:50:38;;;;;;;0.20;0.20;;;;;;;;;;5029195;28;20079;-74
2022/09/07 04:53:04;;;;;;;0.20;0.20;;;;;;;;;;5028266;28;20366;-74
2022/09/07 04:55:30;;;;;;;0.20;0.20;;;;;;;;;;5028849;28;20380;-77
2022/09/07 04:57:55;;;;;;;0.20;0.20;;;;;;;;;;5020850;28;20096;-74
2022/09/07 05:00:21;;;;;;;0.28;0.28;;;;;;;;;;5022873;28;20453;-74
2022/09/07 05:02:46;;;;;;;3.90;1.25;;;;;;;;;;5027360;28;20358;-74
2022/09/07 05:05:12;;;;;;;0.20;0.20;;;;;;;;;;5029454;28;20152;-72
2022/09/07 05:07:37;;;;;;;0.20;0.20;;;;;;;;;;5040306;28;20136;-71
2022/09/07 05:10:03;;;;;;;0.20;0.20;;;;;;;;;;5047753;28;20025;-74
2022/09/07 05:12:28;;;;;;;0.20;0.20;;;;;;;;;;5047983;28;20024;-73
2022/09/07 05:14:54;;;;;;;0.30;0.30;;;;;;;;;;5047924;28;20258;-76
2022/09/07 05:17:19;;;;;;;0.20;0.20;;;;;;;;;;5047356;28;20025;-76
2022/09/07 05:19:46;;;;;;;0.20;0.20;;;;;;;;;;5021162;28;20029;-73
2022/09/07 05:22:12;;;;;;;0.20;0.20;;;;;;;;;;5037666;28;20112;-74
2022/09/07 05:24:37;;;;;;;0.20;0.20;;;;;;;;;;5028586;28;21013;-73
2022/09/07 05:27:03;;;;;;;0.25;0.25;;;;;;;;;;4995065;28;20033;-75
2022/09/07 05:29:29;;;;;;;0.30;0.30;;;;;;;;;;5011337;28;20017;-74
2022/09/07 05:31:55;;;;;;;0.30;0.30;;;;;;;;;;5011268;28;20527;-73
2022/09/07 05:34:20;;;;;;;0.35;0.35;;;;;;;;;;5011567;28;20033;-73
2022/09/07 05:36:45;;;;;;;0.60;0.60;;;;;;;;;;5010968;28;20018;-73
2022/09/07 05:39:11;;;;;;;0.50;0.50;;;;;;;;;;5028279;28;20022;-73
2022/09/07 05:41:36;;;;;;;0.35;0.35;;;;;;;;;;5034782;28;20037;-73
2022/09/07 05:44:02;;;;;;;0.20;0.20;;;;;;;;;;5022442;28;20036;-73
2022/09/07 05:46:27;;;;;;;0.50;0.50;;;;;;;;;;5037185;28;20104;-73
2022/09/07 05:48:53;;;;;;;1.05;0.98;;;;;;;;;;5052298;28;20047;-74
2022/09/07 05:51:18;;;;;;;0.30;0.30;;;;;;;;;;5052217;28;20056;-74
2022/09/07 05:53:46;;;;;;;0.30;0.30;;;;;;;;;;5051066;28;20249;-73
2022/09/07 05:56:11;;;;;;;0.20;0.20;;;;;;;;;;5033563;28;20029;-73
2022/09/07 05:58:37;;;;;;;0.20;0.20;;;;;;;;;;5050493;28;20027;-74
2022/09/07 06:01:12;;;;;;;0.35;0.35;;;;;;;;;;5048115;28;20024;-74
2022/09/07 06:03:38;;;;;;;0.38;0.38;;;;;;;;;;5050302;28;20032;-77
2022/09/07 06:06:18;;;;;;;0.20;0.20;;;;;;;;;;5034015;28;20476;-77
2022/09/07 06:08:51;;;;;;;0.30;0.30;;;;;;;;;;5012301;28;20033;-72
2022/09/07 06:11:18;;;;;;;0.20;0.20;;;;;;;;;;5047808;28;20380;-72
2022/09/07 06:13:44;;;;;;;0.20;0.20;;;;;;;;;;5044440;28;20071;-72
2022/09/07 06:16:10;;;;;;;0.20;0.20;;;;;;;;;;5045326;28;20025;-73
2022/09/07 06:18:37;;;;;;;0.20;0.20;;;;;;;;;;5049060;28;20064;-74
2022/09/07 06:21:03;;;;;;;0.20;0.20;;;;;;;;;;5051224;28;20124;-73
2022/09/07 06:23:30;;;;;;;0.20;0.20;;;;;;;;;;5031583;28;20091;-72
2022/09/07 06:25:56;;;;;;;0.25;0.25;;;;;;;;;;5042817;28;20040;-72
2022/09/07 06:28:32;;;;;;;0.30;0.30;;;;;;;;;;5042373;28;20044;-72
2022/09/07 06:31:02;;;;;;;0.40;0.40;;;;;;;;;;5045997;28;20183;-72
2022/09/07 06:33:27;;;;;;;4.60;2.47;;;;;;;;;;5043905;28;20104;-73
2022/09/07 06:35:56;;;;;;;0.20;0.20;;;;;;;;;;5035669;28;20512;-72
2022/09/07 06:38:22;;;;;;;0.30;0.30;;;;;;;;;;5013119;28;20029;-72
2022/09/07 06:40:47;;;;;;;0.20;0.20;;;;;;;;;;5042292;28;20040;-72
2022/09/07 06:43:13;;;;;;;0.25;0.25;;;;;;;;;;5047904;28;20362;-73
2022/09/07 06:45:38;;;;;;;0.20;0.20;;;;;;;;;;5046207;28;20025;-72
2022/09/07 06:48:04;;;;;;;0.30;0.30;;;;;;;;;;5050456;28;20055;-73
2022/09/07 06:50:30;;;;;;;0.22;0.22;;;;;;;;;;5048837;28;20018;-72
2022/09/07 06:52:55;;;;;;;3.50;1.67;;;;;;;;;;5046839;28;20025;-72
2022/09/07 06:55:21;;;;;;;0.30;0.30;;;;;;;;;;5031183;28;20040;-72
2022/09/07 06:57:47;;;;;;;0.20;0.20;;;;;;;;;;5050329;28;20032;-72
2022/09/07 07:00:12;;;;;;;0.45;0.45;;;;;;;;;;5047484;28;20033;-72
2022/09/07 07:02:38;;;;;;;0.30;0.30;;;;;;;;;;5048833;28;20115;-73
2022/09/07 07:05:03;;;;;;;0.30;0.30;;;;;;;;;;5049869;28;20029;-72
2022/09/07 07:07:29;;;;;;;0.25;0.25;;;;;;;;;;5049011;28;20128;-72
2022/09/07 07:09:55;;;;;;;0.30;0.30;;;;;;;;;;5048196;28;20041;-71
2022/09/07 07:12:20;;;;;;;0.30;0.30;;;;;;;;;;5048972;28;20035;-72
2022/09/07 07:14:46;;;;;;;0.30;0.30;;;;;;;;;;5031923;28;20115;-72
2022/09/07 07:17:11;;;;;;;7.40;6.85;;;;;;;;;;5048981;28;20053;-71
2022/09/07 07:19:37;;;;;;;0.35;0.35;;;;;;;;;;5047450;28;20112;-72
2022/09/07 07:22:02;;;;;;;0.30;0.30;;;;;;;;;;5020660;28;20028;-72
2022/09/07 07:24:28;;;;;;;0.20;0.20;;;;;;;;;;5029051;28;20029;-72
2022/09/07 07:26:53;;;;;;;0.55;0.55;;;;;;;;;;5013681;28;20509;-71
2022/09/07 07:29:19;;;;;;;0.50;0.50;;;;;;;;;;5039665;28;20040;-71
2022/09/07 07:31:45;;;;;;;0.30;0.30;;;;;;;;;;5046689;28;20063;-71
2022/09/07 07:34:11;;;;;;;0.40;0.40;;;;;;;;;;5046120;28;20025;-71
2022/09/07 07:36:36;;;;;;;0.30;0.30;;;;;;;;;;5047786;28;20558;-71
2022/09/07 07:39:02;;;;;;;6.28;3.13;;;;;;;;;;5048179;28;20033;-72
2022/09/07 07:41:31;;;;;;;0.30;0.30;;;;;;;;;;5045970;28;20033;-71
2022/09/07 07:43:58;;;;;;;;;;;;;;;;;;5029756;28;20026;-72
2022/09/07 07:46:24;;;;;;;0.30;0.30;;;;;;;;;;5047595;28;19913;-71
2022/09/07 07:48:50;;;;;;;0.30;0.30;;;;;;;;;;5035986;28;20037;-71
2022/09/07 07:51:15;;;;;;;0.40;0.40;;;;;;;;;;5042340;28;20087;-72
2022/09/07 07:53:41;;;;;;;0.30;0.30;;;;;;;;;;5042908;28;20038;-72
2022/09/07 07:56:07;;;;;;;0.30;0.30;;;;;;;;;;5037390;28;20041;-70
2022/09/07 07:58:33;;;;;;;0.40;0.40;;;;;;;;;;5024189;28;20032;-71
2022/09/07 08:01:00;;;;;;;0.45;0.45;;;;;;;;;;5009548;28;20029;-71
2022/09/07 08:03:26;;;;;;;30.77;17.17;;;;;;;;;;5044891;28;20037;-71
2022/09/07 08:44:17;;;;;;;0.30;0.30;;;;;;;;;;5023939;28;20052;-75
2022/09/07 08:46:58;;;;;;;0.35;0.35;;;;;;;;;;5024911;28;20229;-76
2022/09/07 08:49:42;;;;;;;0.40;0.40;;;;;;;;;;5035618;28;20484;-76
2022/09/07 08:52:11;;;;;;;0.40;0.40;;;;;;;;;;5035945;28;20030;-82
2022/09/07 08:54:37;;;;;;;0.30;0.30;;;;;;;;;;5036983;28;20428;-80
2022/09/07 08:57:03;;;;;;;0.40;0.40;;;;;;;;;;5013360;28;20350;-81
2022/09/07 08:59:39;;;;;;;0.50;0.50;;;;;;;;;;5012236;28;20113;-79
2022/09/07 09:02:10;;;;;;;0.43;0.43;;;;;;;;;;5006896;28;20024;-76
2022/09/07 09:04:35;;;;;;;0.43;0.43;;;;;;;;;;5048698;28;20033;-77
2022/09/07 09:10:53;;;;;;;0.30;0.30;;;;;;;;;;5025387;28;20702;-79
2022/09/07 09:13:21;;;;;;;0.85;0.80;;;;;;;;;;5013907;28;20383;-78
2022/09/07 09:15:46;;;;;;;0.50;0.50;;;;;;;;;;5048476;28;20032;-76
2022/09/07 09:18:30;;;;;;;2.72;1.45;;;;;;;;;;5051168;28;20505;-76
2022/09/07 09:20:56;;;;;;;0.30;0.30;;;;;;;;;;5051747;28;20025;-80
2022/09/07 09:23:26;;;;;;;3.38;1.25;;;;;;;;;;5034194;28;20029;-76
2022/09/07 09:25:53;;;;;;;0.40;0.40;;;;;;;;;;5034383;28;20466;-77
2022/09/07 09:28:18;;;;;;;0.30;0.30;;;;;;;;;;5052437;28;20048;-77
2022/09/07 09:30:46;;;;;;;0.40;0.40;;;;;;;;;;5052140;28;20471;-79
2022/09/07 09:33:11;;;;;;;0.68;0.60;;;;;;;;;;5018484;28;20024;-77
2022/09/07 09:35:38;;;;;;;0.40;0.40;;;;;;;;;;5052166;28;20056;-76
2022/09/07 09:38:03;;;;;;;0.55;0.55;;;;;;;;;;5051935;28;20115;-76
2022/09/07 09:40:30;;;;;;;0.30;0.30;;;;;;;;;;5034205;28;20037;-81
2022/09/07 09:43:00;;;;;;;0.40;0.40;;;;;;;;;;5033761;28;20502;-81
2022/09/07 09:45:27;;;;;;;0.30;0.30;;;;;;;;;;5050073;28;20074;-76
2022/09/07 09:47:53;;;;;;;0.40;0.40;;;;;;;;;;5050048;28;20441;-75
2022/09/07 09:50:33;;;;;;;0.40;0.40;;;;;;;;;;5049964;28;20025;-80
2022/09/07 09:52:59;;;;;;;0.40;0.40;;;;;;;;;;5049615;28;20395;-77
2022/09/07 09:55:25;;;;;;;0.40;0.40;;;;;;;;;;5049649;28;20024;-75
2022/09/07 09:57:57;;;;;;;0.50;0.50;;;;;;;;;;5049538;28;20341;-75
2022/09/07 10:00:23;;;;;;;10.82;3.35;;;;;;;;;;5051491;28;20079;-77
2022/09/07 10:03:07;;;;;;;0.32;0.32;;;;;;;;;;5051839;28;20056;-76
2022/09/07 10:05:35;;;;;;;0.40;0.40;;;;;;;;;;5051388;28;20056;-76
2022/09/07 10:08:02;;;;;;;0.70;0.70;;;;;;;;;;5051764;28;20044;-76
2022/09/07 10:10:29;;;;;;;0.43;0.43;;;;;;;;;;5017411;28;20029;-76
2022/09/07 10:12:54;;;;;;;0.35;0.35;;;;;;;;;;5051546;28;20369;-78
2022/09/07 10:15:24;;;;;;;0.50;0.50;;;;;;;;;;5051354;28;20175;-77
2022/09/07 10:17:50;;;;;;;0.30;0.30;;;;;;;;;;5051456;28;20480;-77
2022/09/07 10:20:16;;;;;;;0.50;0.50;;;;;;;;;;5051291;28;20028;-76
2022/09/07 10:22:42;;;;;;;0.40;0.40;;;;;;;;;;5050839;28;20035;-75
2022/09/07 10:25:26;;;;;;;0.45;0.45;;;;;;;;;;5033406;28;20375;-78
2022/09/07 10:28:08;;;;;;;0.40;0.40;;;;;;;;;;5033222;28;20547;-81
2022/09/07 10:30:52;;;;;;;0.30;0.30;;;;;;;;;;5050007;28;20064;-80
2022/09/07 10:33:36;;;;;;;1.15;0.95;;;;;;;;;;5050977;28;20045;-75
2022/09/07 10:36:09;;;;;;;1.55;0.60;;;;;;;;;;5051197;28;20025;-75
2022/09/07 10:38:39;;;;;;;2.33;0.75;;;;;;;;;;5050775;28;20029;-75
2022/09/07 10:41:08;;;;;;;0.95;0.70;;;;;;;;;;5051321;28;20095;-75
2022/09/07 10:43:36;;;;;;;0.50;0.50;;;;;;;;;;5050744;28;20099;-74
2022/09/07 10:46:10;;;;;;;0.50;0.50;;;;;;;;;;5050796;28;20384;-76
2022/09/07 10:48:36;;;;;;;0.57;0.57;;;;;;;;;;5050609;28;20055;-76
2022/09/07 10:51:08;;;;;;;1.83;0.95;;;;;;;;;;5031670;28;20548;-75
2022/09/07 10:53:38;;;;;;;0.50;0.50;;;;;;;;;;5030196;28;20056;-75
2022/09/07 10:56:22;;;;;;;0.43;0.43;;;;;;;;;;5013270;28;20128;-75
2022/09/07 10:58:54;;;;;;;1.25;0.57;;;;;;;;;;5030931;28;20029;-76
2022/09/07 11:01:38;;;;;;;0.68;0.68;;;;;;;;;;5023582;28;20028;-75
2022/09/07 11:04:22;;;;;;;4.45;1.27;;;;;;;;;;5050161;28;20037;-76
2022/09/07 11:06:49;;;;;;;0.40;0.40;;;;;;;;;;5032568;28;20380;-76
2022/09/07 11:09:17;;;;;;;0.70;0.70;;;;;;;;;;5050387;28;20127;-76
2022/09/07 11:11:42;;;;;;;0.77;0.77;;;;;;;;;;5032758;28;20033;-76
2022/09/07 11:14:10;;;;;;;2.15;1.00;;;;;;;;;;5050443;28;20040;-75
2022/09/07 11:16:38;;;;;;;0.47;0.47;;;;;;;;;;5049961;28;20017;-76
2022/09/07 11:19:05;;;;;;;0.90;0.63;;;;;;;;;;5050761;28;20055;-75
2022/09/07 11:21:37;;;;;;;1.02;0.57;;;;;;;;;;5015704;28;20028;-75
2022/09/07 11:24:08;;;;;;;1.23;1.13;;;;;;;;;;5032721;28;20033;-76
2022/09/07 11:26:45;;;;;;;0.60;0.60;;;;;;;;;;5050384;28;20108;-76
2022/09/07 11:29:20;;;;;;;0.50;0.50;;;;;;;;;;5049755;28;20036;-76
2022/09/07 11:31:54;;;;;;;7.00;6.53;;;;;;;;;;5049735;28;20037;-76
2022/09/07 11:34:27;;;;;;;0.50;0.50;;;;;;;;;;5032030;28;20029;-76
2022/09/07 11:37:06;;;;;;;0.50;0.50;;;;;;;;;;5049624;28;20025;-77
2022/09/07 11:39:50;;;;;;;0.93;0.93;;;;;;;;;;5049678;28;20491;-76
2022/09/07 11:42:31;;;;;;;3.53;1.63;;;;;;;;;;5050063;28;20059;-76
2022/09/07 11:45:01;;;;;;;0.50;0.50;;;;;;;;;;5010291;28;20103;-75
2022/09/07 11:47:32;;;;;;;0.63;0.63;;;;;;;;;;5008428;28;20041;-82
2022/09/07 11:49:58;;;;;;;0.73;0.60;;;;;;;;;;5010061;28;20105;-75
2022/09/07 11:52:23;;;;;;;1.38;1.08;;;;;;;;;;5009888;28;20458;-76
2022/09/07 11:54:56;;;;;;;3.15;1.33;;;;;;;;;;5008421;28;20133;-77
2022/09/07 11:57:40;;;;;;;1.75;1.65;;;;;;;;;;5007862;28;20026;-77
2022/09/07 12:00:11;;;;;;;2.30;0.93;;;;;;;;;;5008183;28;20094;-76
2022/09/07 12:02:55;;;;;;;0.63;0.63;;;;;;;;;;5008131;28;20061;-76
2022/09/07 12:05:20;;;;;;;2.38;0.90;;;;;;;;;;5007663;28;20385;-75
2022/09/07 12:07:58;;;;;;;2.88;0.85;;;;;;;;;;5007428;28;20048;-76
2022/09/07 12:10:32;;;;;;;0.60;0.60;;;;;;;;;;5007337;28;20037;-75
2022/09/07 12:13:05;;;;;;;2.25;0.88;;;;;;;;;;5007518;28;20666;-76
2022/09/07 12:15:36;;;;;;;0.38;0.38;;;;;;;;;;5007553;28;20052;-77
2022/09/07 12:18:21;;;;;;;0.70;0.70;;;;;;;;;;5007681;28;20072;-75
2022/09/07 12:20:47;;;;;;;1.30;0.93;;;;;;;;;;5005276;28;20491;-75
2022/09/07 12:23:15;;;;;;;0.80;0.80;;;;;;;;;;5007226;28;20022;-75
2022/09/07 12:25:48;;;;;;;1.30;0.97;;;;;;;;;;5007188;28;20022;-76
2022/09/07 12:28:14;;;;;;;0.88;0.88;;;;;;;;;;5007077;28;20829;-76
2022/09/07 12:30:48;;;;;;;2.50;0.80;;;;;;;;;;5006016;28;20036;-76
2022/09/07 12:33:34;;;;;;;1.45;0.77;;;;;;;;;;5005814;28;20033;-77
2022/09/07 12:36:00;;;;;;;0.50;0.50;;;;;;;;;;5007088;28;20164;-77
2022/09/07 12:38:29;;;;;;;0.98;0.82;;;;;;;;;;5006701;28;20076;-76
2022/09/07 12:41:02;;;;;;;3.50;2.60;;;;;;;;;;5007421;28;20539;-77
2022/09/07 12:43:31;;;;;;;1.05;0.77;;;;;;;;;;5019579;28;20052;-76
2022/09/07 12:45:59;;;;;;;1.13;0.80;;;;;;;;;;5025852;28;20065;-75
2022/09/07 12:48:37;;;;;;;0.60;0.60;;;;;;;;;;5025606;28;20254;-75
2022/09/07 12:51:09;;;;;;;1.10;1.03;;;;;;;;;;5025463;28;20546;-76
2022/09/07 12:53:53;;;;;;;0.60;0.55;;;;;;;;;;5030935;28;20488;-76
2022/09/07 12:56:19;;;;;;;1.02;0.93;;;;;;;;;;5031529;28;20121;-76
2022/09/07 12:59:03;;;;;;;0.80;0.80;;;;;;;;;;5031420;28;20547;-78
2022/09/07 13:01:47;;;;;;;6.55;1.80;;;;;;;;;;5036379;28;20164;-77
2022/09/07 13:04:31;;;;;;;0.60;0.60;;;;;;;;;;5039378;28;20021;-77
2022/09/07 13:07:15;;;;;;;3.50;2.15;;;;;;;;;;5036355;28;20488;-76
2022/09/07 13:09:41;;;;;;;0.50;0.50;;;;;;;;;;5030231;28;20082;-76
2022/09/07 13:12:29;;;;;;;0.57;0.57;;;;;;;;;;5013696;28;20041;-76
2022/09/07 13:14:56;;;;;;;1.35;0.98;;;;;;;;;;5031080;28;20025;-76
2022/09/07 13:17:48;;;;;;;0.80;0.80;;;;;;;;;;5013234;28;20028;-76
2022/09/07 13:20:18;;;;;;;1.27;0.60;;;;;;;;;;5025878;28;20041;-76
2022/09/07 13:22:43;;;;;;;0.70;0.70;;;;;;;;;;5013263;28;20044;-76
2022/09/07 13:25:19;;;;;;;0.95;0.82;;;;;;;;;;5031110;28;20018;-76
2022/09/07 13:27:58;;;;;;;0.60;0.60;;;;;;;;;;5030551;28;20099;-77
2022/09/07 13:30:42;;;;;;;0.45;0.45;;;;;;;;;;5030800;28;20120;-77
2022/09/07 13:33:22;;;;;;;0.38;0.38;;;;;;;;;;5030362;28;20029;-77
2022/09/07 13:35:51;;;;;;;0.40;0.40;;;;;;;;;;5030183;28;20025;-78
2022/09/07 13:38:16;;;;;;;0.30;0.30;;;;;;;;;;5030832;28;20132;-77
2022/09/07 13:40:45;;;;;;;0.55;0.55;;;;;;;;;;5030690;28;20096;-77
2022/09/07 13:43:21;;;;;;;0.68;0.68;;;;;;;;;;5030619;28;20049;-78
2022/09/07 13:45:52;;;;;;;0.40;0.40;;;;;;;;;;5012355;28;20060;-78
2022/09/07 13:48:18;;;;;;;1.40;0.82;;;;;;;;;;5030151;28;20440;-77
2022/09/07 13:50:43;;;;;;;2.17;0.63;;;;;;;;;;5030278;28;20095;-78
2022/09/07 13:53:28;;;;;;;2.40;0.70;;;;;;;;;;5030536;28;20033;-75
2022/09/07 13:55:53;;;;;;;0.73;0.73;;;;;;;;;;5030024;28;20029;-77
2022/09/07 13:58:22;;;;;;;0.40;0.40;;;;;;;;;;5029688;28;20013;-77
2022/09/07 14:00:58;;;;;;;1.45;0.77;;;;;;;;;;5030502;28;20384;-77
2022/09/07 14:03:25;;;;;;;0.63;0.50;;;;;;;;;;5028875;28;20029;-79
2022/09/07 14:06:09;;;;;;;0.80;0.80;;;;;;;;;;5014816;28;20029;-79
2022/09/07 14:08:36;;;;;;;0.30;0.30;;;;;;;;;;5032007;28;20507;-76
2022/09/07 14:11:01;;;;;;;0.88;0.80;;;;;;;;;;5013608;28;20022;-74
2022/09/07 14:13:27;;;;;;;2.70;0.88;;;;;;;;;;5031580;28;20026;-76
2022/09/07 14:15:52;;;;;;;1.52;1.10;;;;;;;;;;5032006;28;20051;-76
2022/09/07 14:18:27;;;;;;;0.35;0.35;;;;;;;;;;5012779;28;20176;-76
2022/09/07 14:20:53;;;;;;;5.47;2.22;;;;;;;;;;5031917;28;20033;-77
2022/09/07 14:23:26;;;;;;;0.60;0.60;;;;;;;;;;5014036;28;20091;-75
2022/09/07 14:26:07;;;;;;;0.40;0.40;;;;;;;;;;5031290;28;20038;-75
2022/09/07 14:28:36;;;;;;;5.78;1.30;;;;;;;;;;5030601;28;20112;-75
2022/09/07 14:31:04;;;;;;;2.35;0.80;;;;;;;;;;5011823;28;20084;-76
2022/09/07 14:33:30;;;;;;;0.57;0.57;;;;;;;;;;5031429;28;20057;-76
2022/09/07 14:35:56;;;;;;;0.50;0.50;;;;;;;;;;5031692;28;20069;-76
2022/09/07 14:38:22;;;;;;;1.17;0.80;;;;;;;;;;5013911;28;20092;-77
2022/09/07 14:40:47;;;;;;;0.40;0.40;;;;;;;;;;5031415;28;20030;-76
2022/09/07 14:43:32;;;;;;;0.65;0.65;;;;;;;;;;5031114;28;20050;-76
2022/09/07 14:46:10;;;;;;;1.75;1.17;;;;;;;;;;4997420;28;20356;-75
2022/09/07 14:48:37;;;;;;;0.47;0.47;;;;;;;;;;5030824;28;20076;-76
2022/09/07 14:51:03;;;;;;;0.35;0.35;;;;;;;;;;5031425;28;20022;-76
2022/09/07 14:53:28;;;;;;;0.40;0.40;;;;;;;;;;5030939;28;20053;-76
2022/09/07 14:56:20;;;;;;;1.48;0.73;;;;;;;;;;5031468;28;20058;-74
2022/09/07 14:58:46;;;;;;;0.65;0.65;;;;;;;;;;5026313;28;20077;-75
2022/09/07 15:01:12;;;;;;;2.13;0.88;;;;;;;;;;5013599;28;20026;-75
2022/09/07 15:03:37;;;;;;;4.13;3.85;;;;;;;;;;5030792;28;20033;-75
2022/09/07 15:06:03;;;;;;;0.93;0.80;;;;;;;;;;5031157;28;20025;-75
2022/09/07 15:08:37;;;;;;;0.50;0.50;;;;;;;;;;5030701;28;20061;-77
2022/09/07 15:11:04;;;;;;;2.22;1.58;;;;;;;;;;5013151;28;20037;-77
2022/09/07 15:13:33;;;;;;;0.40;0.40;;;;;;;;;;5030610;28;20025;-77
2022/09/07 15:16:04;;;;;;;0.47;0.47;;;;;;;;;;5030826;28;20061;-76
2022/09/07 15:18:44;;;;;;;0.55;0.52;;;;;;;;;;5030703;28;20049;-76
2022/09/07 15:21:10;;;;;;;2.05;0.88;;;;;;;;;;5030357;28;20476;-76
2022/09/07 15:23:36;;;;;;;0.82;0.60;;;;;;;;;;5012724;28;20033;-78
2022/09/07 15:26:01;;;;;;;1.05;0.52;;;;;;;;;;5030765;28;20060;-78
2022/09/07 15:28:31;;;;;;;0.63;0.57;;;;;;;;;;5030645;28;20064;-77
2022/09/07 15:30:56;;;;;;;0.65;0.50;;;;;;;;;;5030908;28;20030;-77
2022/09/07 15:33:22;;;;;;;79.45;64.60;;;;;;;;;;5030361;28;20083;-78
2022/09/07 15:35:50;;;;;;;0.30;0.30;;;;;;;;;;5029974;28;20017;-79
2022/09/07 15:38:16;;;;;;;0.50;0.50;;;;;;;;;;5012832;28;20091;-78
2022/09/07 15:40:46;;;;;;;0.50;0.50;;;;;;;;;;5030410;28;20022;-77